Morgantown, WV

11:11 AM EDT on August 25, 2016 (GMT -0400)
Arnettsville | | Change Station

Elev 1188 ft 39.59 °N, 80.09 °W | Updated 14 minutes ago

Mostly Cloudy
Mostly Cloudy
77.5 °F
Feels Like 79 °F
N
4.2
Wind Variable Wind from South

Today
High -- | Low -- °F
--% Chance of Precip.
Yesterday
High -- | Low -- °F
Precip. -- in
Pressure 30.14 in
Visibility 10.0 miles
Clouds Mostly Cloudy 1000 ft
Mostly Cloudy 1500 ft
Heat Index 79 °F
Dew Point 71 °F
Humidity 81%
Rainfall 0.52 in
Snow Depth Not available.
6:42 AM 8:01 PM
Last Quarter, 45% visible
SPECI KMGW 251501Z 20007KT 170V250 10SM BKN010 BKN015 25/22 A3014 RMK AO2 T02500217
Pressure 30.14 in
Visibility 10.0 miles
Clouds Mostly Cloudy 1000 ft
Mostly Cloudy 1500 ft
Heat Index 79 °F
Dew Point 71 °F
Humidity 81%
Rainfall 0.52 in
Snow Depth Not available.
6:42 AM 8:01 PM
Last Quarter, 45% visible
SPECI KMGW 251501Z 20007KT 170V250 10SM BKN010 BKN015 25/22 A3014 RMK AO2 T02500217

10-Day Weather Forecast

Almanac

Astronomy

Aug. 25, 2016 Rise Set
Actual Time
Civil Twilight
Nautical Twilight
Astronomical Twilight
Moon
Length of Visible Light
Length of Day
Tomorrow will be .
, % of the Moon is Illuminated

Today's Extremes

State Highs State Lows

Community

WunderPhotos

Upload Photos

1,934,856 photos uploaded!

WunderBlog® & News

Nearby

Air Quality

  Air Quality AQ Index Pollutant
Not available.

Snow Depth

Station Depth Elevation

Earthquake Activity

City Distance Mag. Time & Date
Minimum magnitude displayed is 2.5.

Coastal Water Temperatures

Place Temperature

Stations

Nearby Weather Stations

Station Location Temp. Windchill Dew Point Humidity Wind Precip. Elev Updated Type
                   

Watches & Warnings

There are currently no watches in effect.